createdAt,value
2018-08-16T00:04:30.719Z,55.10
2018-08-16T00:09:33.859Z,55.20
2018-08-16T00:14:36.935Z,55.20
2018-08-16T00:19:40.760Z,55.80
2018-08-16T00:24:43.868Z,55.40
2018-08-16T00:29:46.976Z,55.50
2018-08-16T00:34:50.059Z,55.40
2018-08-16T00:39:53.288Z,55.40
2018-08-16T00:44:56.429Z,55.40
2018-08-16T00:49:59.564Z,55.60
2018-08-16T00:55:02.694Z,55.30
2018-08-16T01:00:06.811Z,55.50
2018-08-16T01:05:10.144Z,55.60
2018-08-16T01:10:14.282Z,55.60
2018-08-16T01:15:17.393Z,55.70
2018-08-16T01:20:20.633Z,55.80
2018-08-16T01:25:26.001Z,55.70
2018-08-16T01:30:29.115Z,55.70
2018-08-16T01:35:32.287Z,55.50
2018-08-16T01:40:35.335Z,55.50
2018-08-16T01:45:38.424Z,55.70
2018-08-16T01:50:41.783Z,55.90
2018-08-16T01:55:44.895Z,55.90
2018-08-16T02:00:47.967Z,56.10
2018-08-16T02:05:51.059Z,55.90
2018-08-16T02:10:54.314Z,56.00
2018-08-16T02:15:57.415Z,56.20
2018-08-16T02:21:00.542Z,56.10
2018-08-16T02:26:03.636Z,56.30
2018-08-16T02:31:06.735Z,56.20
2018-08-16T02:36:09.817Z,56.20
2018-08-16T02:41:12.902Z,56.40
2018-08-16T02:46:16.180Z,56.40
2018-08-16T02:51:19.287Z,56.40
2018-08-16T02:56:22.387Z,56.30
2018-08-16T03:01:25.463Z,56.20
2018-08-16T03:06:28.588Z,56.50
2018-08-16T03:11:31.677Z,56.40
2018-08-16T03:16:34.779Z,56.40
2018-08-16T03:21:37.899Z,56.50
2018-08-16T03:26:40.991Z,56.30
2018-08-16T03:31:44.141Z,56.50
2018-08-16T03:36:47.172Z,56.70
2018-08-16T03:41:50.263Z,56.90
2018-08-16T03:46:53.355Z,56.60
2018-08-16T03:51:56.492Z,56.70
2018-08-16T03:56:59.601Z,56.70
2018-08-16T04:02:02.711Z,56.90
2018-08-16T04:07:05.796Z,56.80
2018-08-16T04:12:09.004Z,56.80
2018-08-16T04:17:12.107Z,57.00
2018-08-16T04:22:15.239Z,57.10
2018-08-16T04:27:18.348Z,57.10
2018-08-16T04:32:21.451Z,56.90
2018-08-16T04:37:24.556Z,57.20
2018-08-16T04:42:27.648Z,57.40
2018-08-16T04:47:30.748Z,57.30
2018-08-16T04:52:33.856Z,57.40
2018-08-16T04:57:37.667Z,57.40
2018-08-16T05:02:40.771Z,57.60
2018-08-16T05:07:43.843Z,57.60
2018-08-16T05:12:46.931Z,57.70
2018-08-16T05:17:50.036Z,58.00
2018-08-16T05:22:53.131Z,57.80
2018-08-16T05:27:56.244Z,57.80
2018-08-16T05:32:59.335Z,58.10
2018-08-16T05:38:02.474Z,58.20
2018-08-16T05:43:05.616Z,58.10
2018-08-16T05:48:08.760Z,58.20
2018-08-16T05:53:11.831Z,58.30
2018-08-16T05:58:14.923Z,58.70
2018-08-16T06:03:18.035Z,59.00
2018-08-16T06:08:21.140Z,58.80
2018-08-16T06:13:24.259Z,58.50
2018-08-16T06:18:27.379Z,58.80
2018-08-16T06:23:30.475Z,58.20
2018-08-16T06:28:33.692Z,58.10
2018-08-16T06:33:36.891Z,58.20
2018-08-16T06:38:39.991Z,58.20
2018-08-16T06:43:43.079Z,57.70
2018-08-16T06:48:46.179Z,58.10
2018-08-16T06:53:49.289Z,58.00
2018-08-16T06:58:52.386Z,57.40
2018-08-16T07:03:55.484Z,57.30
2018-08-16T07:08:58.602Z,57.50
2018-08-16T07:14:01.697Z,58.00
2018-08-16T07:19:04.806Z,58.00
2018-08-16T07:24:08.055Z,57.20
2018-08-16T07:29:11.139Z,57.40
2018-08-16T07:34:14.248Z,57.10
2018-08-16T07:39:17.340Z,56.90
2018-08-16T07:44:20.454Z,56.60
2018-08-16T07:49:23.737Z,56.60
2018-08-16T07:54:26.880Z,56.60
2018-08-16T07:59:29.982Z,56.30
2018-08-16T08:04:33.184Z,56.00
2018-08-16T08:09:36.369Z,55.70
2018-08-16T08:14:39.387Z,55.50
2018-08-16T08:19:42.499Z,55.60
2018-08-16T08:24:45.619Z,55.40
2018-08-16T08:29:48.748Z,55.10
2018-08-16T08:34:51.831Z,54.80
2018-08-16T08:39:54.941Z,54.60
2018-08-16T08:44:58.144Z,54.20
2018-08-16T08:50:01.249Z,54.10
2018-08-16T08:55:15.760Z,53.80
2018-08-16T09:00:18.892Z,53.50
2018-08-16T09:05:22.037Z,53.50
2018-08-16T09:10:50.595Z,52.70
2018-08-16T09:15:53.997Z,52.40
2018-08-16T09:20:57.206Z,51.90
2018-08-16T09:26:00.318Z,51.20
2018-08-16T09:31:14.990Z,51.00
2018-08-16T09:36:18.066Z,50.60
2018-08-16T09:41:21.195Z,50.40
2018-08-16T09:46:46.741Z,49.70
2018-08-16T09:51:49.839Z,49.40
2018-08-16T09:56:53.581Z,49.20
2018-08-16T10:01:56.667Z,49.90
2018-08-16T10:06:59.880Z,48.80
2018-08-16T10:12:03.417Z,48.10
2018-08-16T10:17:06.520Z,48.50
2018-08-16T10:22:09.632Z,47.90
2018-08-16T10:27:12.774Z,48.00
2018-08-16T10:32:15.874Z,47.20
2018-08-16T10:37:18.978Z,46.80
2018-08-16T10:42:22.090Z,47.10
2018-08-16T10:47:25.213Z,45.50
2018-08-16T10:52:28.410Z,45.90
2018-08-16T10:57:31.545Z,45.20
2018-08-16T11:02:34.751Z,44.80
2018-08-16T11:07:38.355Z,45.30
2018-08-16T11:12:41.364Z,45.50
2018-08-16T11:17:44.588Z,44.80
2018-08-16T11:22:47.699Z,44.10
2018-08-16T11:27:50.825Z,44.10
2018-08-16T11:32:53.981Z,44.10
2018-08-16T11:39:00.671Z,43.20
2018-08-16T11:44:03.949Z,42.80
2018-08-16T11:49:07.051Z,42.80
2018-08-16T11:54:10.236Z,42.20
2018-08-16T11:59:13.367Z,42.50
2018-08-16T12:04:16.480Z,41.90
2018-08-16T12:09:19.589Z,41.20
2018-08-16T12:14:22.695Z,41.80
2018-08-16T12:19:25.847Z,41.70
2018-08-16T12:24:28.945Z,41.20
2018-08-16T12:29:32.027Z,41.50
2018-08-16T12:34:35.454Z,40.80
2018-08-16T12:39:38.633Z,40.90
2018-08-16T12:44:41.752Z,40.20
2018-08-16T12:49:44.868Z,39.60
2018-08-16T12:54:48.005Z,40.10
2018-08-16T12:59:51.124Z,39.40
2018-08-16T13:04:54.227Z,39.90
2018-08-16T13:09:57.416Z,38.60
2018-08-16T13:15:01.530Z,39.20
2018-08-16T13:20:05.134Z,39.10
2018-08-16T13:25:08.951Z,38.60
2018-08-16T13:30:12.056Z,39.00
2018-08-16T13:35:15.171Z,38.60
2018-08-16T13:40:18.272Z,38.40
2018-08-16T13:45:21.379Z,37.90
2018-08-16T13:50:24.640Z,37.10
2018-08-16T13:55:27.763Z,37.70
2018-08-16T14:00:30.851Z,37.50
2018-08-16T14:05:33.952Z,38.60
2018-08-16T14:10:37.055Z,37.90
2018-08-16T14:15:40.159Z,37.30
2018-08-16T14:20:43.293Z,38.50
2018-08-16T14:30:55.852Z,37.80
2018-08-16T14:35:58.961Z,38.20
2018-08-16T14:41:02.067Z,37.20
2018-08-16T14:46:05.200Z,37.60
2018-08-16T14:51:08.303Z,38.10
2018-08-16T14:56:11.427Z,37.80
2018-08-16T15:01:14.527Z,38.20
2018-08-16T15:06:17.620Z,38.00
2018-08-16T15:11:20.853Z,37.30
2018-08-16T15:16:23.980Z,37.80
2018-08-16T15:21:27.123Z,37.70
2018-08-16T15:26:30.237Z,37.80
2018-08-16T15:31:33.340Z,37.60
2018-08-16T15:36:36.435Z,37.10
2018-08-16T15:41:39.556Z,38.00
2018-08-16T15:46:42.675Z,37.90
2018-08-16T15:51:45.795Z,38.10
2018-08-16T15:56:48.905Z,38.20
2018-08-16T16:01:51.995Z,38.40
2018-08-16T16:06:55.165Z,38.30
2018-08-16T16:11:58.304Z,38.70
2018-08-16T16:17:02.246Z,38.60
2018-08-16T16:22:05.476Z,38.50
2018-08-16T16:27:08.623Z,38.30
2018-08-16T16:32:11.755Z,38.50
2018-08-16T16:37:14.963Z,38.50
2018-08-16T16:42:18.063Z,38.60
2018-08-16T16:47:21.164Z,38.90
2018-08-16T16:52:24.400Z,39.00
2018-08-16T16:57:27.592Z,39.00
2018-08-16T17:02:30.800Z,38.70
2018-08-16T17:07:33.989Z,38.60
2018-08-16T17:12:37.096Z,38.60
2018-08-16T17:17:41.080Z,39.20
2018-08-16T17:22:44.263Z,39.10
2018-08-16T17:27:47.385Z,38.90
2018-08-16T17:32:50.623Z,39.30
2018-08-16T17:37:53.732Z,39.70
2018-08-16T17:42:56.816Z,40.10
2018-08-16T17:48:00.009Z,40.30
2018-08-16T17:53:03.128Z,40.30
2018-08-16T17:58:06.225Z,40.30
2018-08-16T18:03:09.332Z,40.70
2018-08-16T18:08:12.460Z,40.80
2018-08-16T18:13:15.624Z,41.00
2018-08-16T18:18:18.724Z,41.30
2018-08-16T18:23:21.941Z,41.60
2018-08-16T18:28:25.036Z,41.70
2018-08-16T18:33:28.131Z,41.80
2018-08-16T18:38:31.243Z,41.80
2018-08-16T18:43:34.336Z,41.80
2018-08-16T18:48:37.487Z,42.00
2018-08-16T18:53:40.605Z,42.80
2018-08-16T18:58:43.792Z,42.40
2018-08-16T19:03:46.924Z,42.60
2018-08-16T19:08:50.154Z,42.60
2018-08-16T19:13:53.271Z,42.80
2018-08-16T19:18:56.444Z,43.50
2018-08-16T19:23:59.556Z,43.00
2018-08-16T19:29:02.779Z,43.20
2018-08-16T19:34:05.879Z,43.30
2018-08-16T19:39:10.839Z,43.50
2018-08-16T19:44:13.995Z,43.70
2018-08-16T19:49:17.123Z,44.00
2018-08-16T19:54:20.224Z,44.00
2018-08-16T19:59:23.376Z,44.60
2018-08-16T20:04:26.505Z,44.70
2018-08-16T20:09:29.622Z,44.90
2018-08-16T20:14:32.725Z,45.20
2018-08-16T20:19:35.963Z,45.20
2018-08-16T20:24:38.940Z,45.30
2018-08-16T20:29:42.316Z,45.70
2018-08-16T20:34:45.523Z,45.80
2018-08-16T20:39:48.620Z,46.20
2018-08-16T20:44:52.583Z,46.40
2018-08-16T20:49:55.691Z,46.60
2018-08-16T20:54:58.827Z,46.50
2018-08-16T21:00:01.966Z,47.20
2018-08-16T21:05:05.299Z,47.20
2018-08-16T21:10:09.455Z,47.30
2018-08-16T21:15:12.584Z,47.80
2018-08-16T21:20:15.783Z,47.80
2018-08-16T21:25:18.891Z,47.80
2018-08-16T21:30:22.054Z,47.90
2018-08-16T21:35:25.123Z,48.00
2018-08-16T21:40:28.306Z,48.30
2018-08-16T21:45:31.324Z,48.70
2018-08-16T21:50:34.455Z,49.00
2018-08-16T21:55:37.581Z,49.50
2018-08-16T22:00:50.971Z,49.50
2018-08-16T22:06:02.964Z,49.80
2018-08-16T22:11:06.816Z,50.00
2018-08-16T22:16:09.968Z,50.40
2018-08-16T22:21:13.151Z,51.00
2018-08-16T22:26:16.309Z,51.40
2018-08-16T22:31:19.504Z,51.70
2018-08-16T22:36:22.599Z,52.00
2018-08-16T22:41:25.823Z,52.40
2018-08-16T22:46:28.931Z,52.50
2018-08-16T22:56:41.512Z,52.70
2018-08-16T23:01:44.628Z,53.00
2018-08-16T23:06:47.776Z,53.20
2018-08-16T23:11:50.895Z,54.00
2018-08-16T23:16:54.010Z,53.40
2018-08-16T23:21:57.099Z,53.70
2018-08-16T23:27:00.221Z,53.80
2018-08-16T23:32:03.304Z,54.10
2018-08-16T23:37:06.704Z,54.20
2018-08-16T23:42:09.797Z,53.90
2018-08-16T23:47:12.880Z,54.20
2018-08-16T23:52:16.020Z,54.40
2018-08-16T23:57:19.498Z,54.50
